Погода Гуажара-Миринна 2 недели

Рондония, Бразилия

24 июня-06 июля
  • 24июня
    Сегодня
    +22°
    +34°
    Ясно и безоблачно
    ВремяПогодаТемператураВлажностьДавлениеВетер, м/сВероятность осадков
    02:00Ясно и безоблачно+25°C80 %747 мм2.2 м/с5 %
    05:00Ясно и безоблачно+24°C88 %747 мм1.6 м/с5 %
    08:00Ясно и безоблачно+25°C82 %749 мм1.4 м/с5 %
    11:00Ясно и безоблачно+32°C52 %750 мм3.0 м/с4 %
    14:00Ясно и безоблачно+33°C44 %748 мм2.8 м/с2 %
    17:00Ясно и безоблачно+32°C52 %747 мм0.9 м/с3 %
    20:00Ясно и безоблачно+27°C68 %747 мм1.7 м/с5 %
    23:00Ясно и безоблачно+26°C80 %748 мм1.5 м/с5 %
  • 25июня
    Вторник
    +23°
    +34°
    Ясно и безоблачно
    ВремяПогодаТемператураВлажностьДавлениеВетер, м/сВероятность осадков
    02:00Ясно и безоблачно+25°C83 %748 мм1.3 м/с5 %
    05:00Ясно и безоблачно+23°C90 %748 мм1.4 м/с5 %
    08:00Ясно и безоблачно+25°C83 %750 мм0.5 м/с5 %
    11:00Ясно и безоблачно+32°C47 %750 мм2.3 м/с5 %
    14:00Ясно и безоблачно+33°C41 %748 мм2.3 м/с5 %
    17:00Ясно и безоблачно+32°C50 %747 мм0.7 м/с4 %
    20:00Ясно и безоблачно+27°C73 %747 мм1.5 м/с5 %
    23:00Ясно и безоблачно+25°C76 %748 мм2.0 м/с5 %
  • 26июня
    Среда
    +22°
    +33°
    Ясно и безоблачно
    ВремяПогодаТемператураВлажностьДавлениеВетер, м/сВероятность осадков
    02:00Ясно и безоблачно+24°C78 %748 мм1.7 м/с5 %
    05:00Ясно и безоблачно+24°C85 %748 мм1.2 м/с5 %
    08:00Ясно и безоблачно+25°C81 %750 мм0.8 м/с5 %
    11:00Практически безоблачно+32°C49 %750 мм1.8 м/с4 %
    14:00Ясно и безоблачно+33°C42 %748 мм2.1 м/с3 %
    17:00Ясно и безоблачно+32°C51 %747 мм0.5 м/с3 %
    20:00Ясно и безоблачно+27°C73 %747 мм1.2 м/с5 %
    23:00Ясно и безоблачно+26°C72 %748 мм0.0 м/с5 %
  • 27июня
    Четверг
    +23°
    +34°
    Облачно с прояснениями
    ВремяПогодаТемператураВлажностьДавлениеВетер, м/сВероятность осадков
    02:00Ясно и безоблачно+25°C80 %748 мм0.4 м/с5 %
    05:00Ясно и безоблачно+23°C93 %748 мм1.4 м/с5 %
    08:00Ясно и безоблачно+25°C83 %749 мм0.6 м/с5 %
    11:00Облачно с прояснениями+32°C47 %749 мм2.3 м/с5 %
    14:00Облачно с прояснениями+33°C42 %747 мм2.1 м/с5 %
    17:00Облачно с прояснениями+32°C49 %745 мм1.0 м/с5 %
    20:00Облачно с прояснениями+28°C66 %746 мм1.9 м/с5 %
    23:00Облачно с прояснениями+26°C72 %746 мм2.0 м/с5 %
Мы используем cookies
Соглашаюсь